createdAt,value
2019-05-02T00:02:47.638Z,58.90
2019-05-02T00:07:06.261Z,59.10
2019-05-02T00:11:12.154Z,59.50
2019-05-02T00:15:17.897Z,58.90
2019-05-02T00:19:23.609Z,59.80
2019-05-02T00:23:29.688Z,59.50
2019-05-02T00:27:37.686Z,59.90
2019-05-02T00:31:46.840Z,59.50
2019-05-02T00:35:52.411Z,59.60
2019-05-02T00:39:58.036Z,59.70
2019-05-02T00:44:06.066Z,59.50
2019-05-02T00:48:23.201Z,59.70
2019-05-02T00:52:32.990Z,59.50
2019-05-02T00:56:40.142Z,59.40
2019-05-02T01:01:02.051Z,59.90
2019-05-02T01:05:07.702Z,59.90
2019-05-02T01:09:13.487Z,60.70
2019-05-02T01:13:20.344Z,61.00
2019-05-02T01:17:30.915Z,60.50
2019-05-02T01:21:38.841Z,59.80
2019-05-02T01:25:47.240Z,60.20
2019-05-02T01:30:25.798Z,60.10
2019-05-02T01:34:38.695Z,61.10
2019-05-02T01:38:49.296Z,60.50
2019-05-02T01:42:56.598Z,61.40
2019-05-02T01:47:03.159Z,60.10
2019-05-02T01:51:12.144Z,60.80
2019-05-02T01:55:21.149Z,60.50
2019-05-02T01:59:29.047Z,61.00
2019-05-02T02:03:33.647Z,60.30
2019-05-02T02:07:39.314Z,60.80
2019-05-02T02:11:45.091Z,60.90
2019-05-02T02:15:50.783Z,60.60
2019-05-02T02:20:00.764Z,60.90
2019-05-02T02:24:13.690Z,60.90
2019-05-02T02:28:20.485Z,61.10
2019-05-02T02:32:27.012Z,61.60
2019-05-02T02:36:34.869Z,61.90
2019-05-02T02:40:40.869Z,61.80
2019-05-02T02:44:55.086Z,61.60
2019-05-02T02:49:00.724Z,60.80
2019-05-02T02:53:07.870Z,62.20
2019-05-02T02:57:26.067Z,61.60
2019-05-02T03:01:29.069Z,62.70
2019-05-02T03:05:31.576Z,62.20
2019-05-02T03:09:37.328Z,61.30
2019-05-02T03:14:10.876Z,63.30
2019-05-02T03:18:17.926Z,63.40
2019-05-02T03:22:23.565Z,61.90
2019-05-02T03:26:30.645Z,62.60
2019-05-02T03:30:37.690Z,62.60
2019-05-02T03:34:52.221Z,63.90
2019-05-02T03:38:51.688Z,62.50
2019-05-02T03:42:57.342Z,63.00
2019-05-02T03:47:04.941Z,62.70
2019-05-02T03:51:19.283Z,62.10
2019-05-02T03:55:23.695Z,62.20
2019-05-02T03:59:37.707Z,62.30
2019-05-02T04:03:41.070Z,64.70
2019-05-02T04:07:46.069Z,62.50
2019-05-02T04:11:51.946Z,62.20
2019-05-02T04:15:58.728Z,64.10
2019-05-02T04:20:09.372Z,63.10
2019-05-02T04:24:15.662Z,62.90
2019-05-02T04:28:19.318Z,64.10
2019-05-02T04:32:25.063Z,63.30
2019-05-02T04:36:30.835Z,61.10
2019-05-02T04:40:41.725Z,63.00
2019-05-02T04:45:07.518Z,62.80
2019-05-02T04:48:52.868Z,61.40
2019-05-02T04:52:59.282Z,62.70
2019-05-02T04:57:08.209Z,62.60
2019-05-02T05:01:12.647Z,62.70
2019-05-02T05:05:25.775Z,63.00
2019-05-02T05:09:27.870Z,62.50
2019-05-02T05:13:33.888Z,62.10
2019-05-02T05:17:39.515Z,61.90
2019-05-02T05:21:45.066Z,62.40
2019-05-02T05:26:02.940Z,62.90
2019-05-02T05:30:11.229Z,61.10
2019-05-02T05:34:11.447Z,58.90
2019-05-02T05:38:18.199Z,59.30
2019-05-02T05:42:30.216Z,57.90
2019-05-02T05:46:33.347Z,57.40
2019-05-02T05:50:41.439Z,57.40
2019-05-02T05:54:47.479Z,56.90
2019-05-02T05:58:59.123Z,58.00
2019-05-02T06:03:11.541Z,56.50
2019-05-02T06:07:13.162Z,56.20
2019-05-02T06:11:20.195Z,54.80
2019-05-02T06:15:26.089Z,54.70
2019-05-02T06:19:32.901Z,54.50
2019-05-02T06:23:41.565Z,52.80
2019-05-02T06:27:47.434Z,53.10
2019-05-02T06:31:53.261Z,53.20
2019-05-02T06:36:02.512Z,53.90
2019-05-02T06:40:09.451Z,53.80
2019-05-02T06:44:18.420Z,52.40
2019-05-02T06:48:22.553Z,54.10
2019-05-02T06:52:32.758Z,53.40
2019-05-02T06:56:36.757Z,53.90
2019-05-02T07:00:56.375Z,52.30
2019-05-02T07:04:54.835Z,52.50
2019-05-02T07:08:59.614Z,50.90
2019-05-02T07:13:10.927Z,50.20
2019-05-02T07:17:48.874Z,50.00
2019-05-02T07:21:58.696Z,49.70
2019-05-02T07:26:03.242Z,50.70
2019-05-02T07:30:08.975Z,48.70
2019-05-02T07:34:17.654Z,49.80
2019-05-02T07:38:25.772Z,50.80
2019-05-02T07:42:30.781Z,50.20
2019-05-02T07:46:36.536Z,50.80
2019-05-02T07:50:46.479Z,47.00
2019-05-02T07:54:49.344Z,46.40
2019-05-02T07:58:54.946Z,48.30
2019-05-02T08:03:00.646Z,48.90
2019-05-02T08:07:06.335Z,46.90
2019-05-02T08:11:11.972Z,47.10
2019-05-02T08:15:17.617Z,45.80
2019-05-02T08:19:23.660Z,47.30
2019-05-02T08:23:30.340Z,47.10
2019-05-02T08:27:50.365Z,47.20
2019-05-02T08:31:56.300Z,47.40
2019-05-02T08:36:02.225Z,45.00
2019-05-02T08:40:10.521Z,47.90
2019-05-02T08:44:16.758Z,46.90
2019-05-02T08:48:22.850Z,47.90
2019-05-02T08:52:28.607Z,47.00
2019-05-02T08:56:35.008Z,46.50
2019-05-02T09:00:40.823Z,46.60
2019-05-02T09:04:57.930Z,46.90
2019-05-02T09:08:53.736Z,43.90
2019-05-02T09:12:59.320Z,44.10
2019-05-02T09:17:11.962Z,45.30
2019-05-02T09:21:15.057Z,45.20
2019-05-02T09:25:21.967Z,45.40
2019-05-02T09:29:27.980Z,43.70
2019-05-02T09:33:36.833Z,41.70
2019-05-02T09:37:41.907Z,40.30
2019-05-02T09:41:48.302Z,43.20
2019-05-02T09:45:53.925Z,44.30
2019-05-02T09:50:09.336Z,44.00
2019-05-02T09:54:14.973Z,43.30
2019-05-02T09:58:24.074Z,42.40
2019-05-02T10:02:30.192Z,38.00
2019-05-02T10:06:35.800Z,37.60
2019-05-02T10:10:44.188Z,39.80
2019-05-02T10:14:48.678Z,40.50
2019-05-02T10:18:54.395Z,40.30
2019-05-02T10:23:01.863Z,39.80
2019-05-02T10:27:08.622Z,39.60
2019-05-02T10:31:14.645Z,39.10
2019-05-02T10:35:22.872Z,38.90
2019-05-02T10:39:34.077Z,40.40
2019-05-02T10:43:35.917Z,38.70
2019-05-02T10:47:42.283Z,37.60
2019-05-02T10:51:49.565Z,36.30
2019-05-02T10:55:55.419Z,35.40
2019-05-02T11:00:03.229Z,35.80
2019-05-02T11:04:12.899Z,36.60
2019-05-02T11:08:18.640Z,34.40
2019-05-02T11:12:44.435Z,36.90
2019-05-02T11:17:01.773Z,37.80
2019-05-02T11:21:12.132Z,35.80
2019-05-02T11:25:22.459Z,36.10
2019-05-02T11:29:28.196Z,36.30
2019-05-02T11:33:33.801Z,33.00
2019-05-02T11:37:39.638Z,34.20
2019-05-02T11:41:45.315Z,36.70
2019-05-02T11:45:54.169Z,35.60
2019-05-02T11:49:58.291Z,33.60
2019-05-02T11:54:08.196Z,35.50
2019-05-02T11:58:12.542Z,33.60
2019-05-02T12:02:54.206Z,35.30
2019-05-02T12:07:01.147Z,34.00
2019-05-02T12:11:08.415Z,36.20
2019-05-02T12:15:12.067Z,35.30
2019-05-02T12:19:17.631Z,34.40
2019-05-02T12:23:23.264Z,31.80
2019-05-02T12:27:29.108Z,32.80
2019-05-02T12:31:34.727Z,31.30
2019-05-02T12:35:40.361Z,34.40
2019-05-02T12:39:46.019Z,33.80
2019-05-02T12:43:52.472Z,32.30
2019-05-02T12:47:58.319Z,31.40
2019-05-02T12:52:04.057Z,33.50
2019-05-02T12:56:11.721Z,32.40
2019-05-02T13:00:18.542Z,29.40
2019-05-02T13:04:24.384Z,32.80
2019-05-02T13:08:30.027Z,29.60
2019-05-02T13:12:37.644Z,29.70
2019-05-02T13:16:43.267Z,28.00
2019-05-02T13:20:49.448Z,29.50
2019-05-02T13:24:58.031Z,29.60
2019-05-02T13:29:03.679Z,28.90
2019-05-02T13:33:12.259Z,30.40
2019-05-02T13:37:19.768Z,29.80
2019-05-02T13:41:25.457Z,30.50
2019-05-02T13:45:55.501Z,28.00
2019-05-02T13:50:03.751Z,27.40
2019-05-02T13:54:08.851Z,29.90
2019-05-02T13:58:14.618Z,29.20
2019-05-02T14:02:35.073Z,31.20
2019-05-02T14:06:42.096Z,31.60
2019-05-02T14:10:49.504Z,31.30
2019-05-02T14:14:56.425Z,29.40
2019-05-02T14:19:02.947Z,28.10
2019-05-02T14:23:08.778Z,30.80
2019-05-02T14:27:17.206Z,26.50
2019-05-02T14:31:21.752Z,29.10
2019-05-02T14:35:36.303Z,31.70
2019-05-02T14:39:43.101Z,28.40
2019-05-02T14:43:56.242Z,31.30
2019-05-02T14:48:18.072Z,26.30
2019-05-02T14:52:12.522Z,29.50
2019-05-02T14:56:33.121Z,30.30
2019-05-02T15:00:47.774Z,30.00
2019-05-02T15:04:52.125Z,28.70
2019-05-02T15:08:57.455Z,31.60
2019-05-02T15:13:03.917Z,27.50
2019-05-02T15:17:11.988Z,30.00
2019-05-02T15:21:22.867Z,26.90
2019-05-02T15:25:28.789Z,28.30
2019-05-02T15:29:34.427Z,28.10
2019-05-02T15:33:51.728Z,31.70
2019-05-02T15:38:02.688Z,31.90
2019-05-02T15:42:04.581Z,33.10
2019-05-02T15:46:10.342Z,29.20
2019-05-02T15:50:21.938Z,30.80
2019-05-02T15:54:23.825Z,29.00
2019-05-02T15:58:29.698Z,29.20
2019-05-02T16:02:35.535Z,30.10
2019-05-02T16:06:41.857Z,31.30
2019-05-02T16:10:47.704Z,32.00
2019-05-02T16:14:53.452Z,33.00
2019-05-02T16:18:59.088Z,27.10
2019-05-02T16:23:05.017Z,30.00
2019-05-02T16:27:11.712Z,33.20
2019-05-02T16:31:22.096Z,31.50
2019-05-02T16:35:26.266Z,33.50
2019-05-02T16:39:32.474Z,31.40
2019-05-02T16:43:38.558Z,27.70
2019-05-02T16:47:44.307Z,30.00
2019-05-02T16:51:49.967Z,32.20
2019-05-02T16:55:58.484Z,31.80
2019-05-02T17:00:06.219Z,28.20
2019-05-02T17:04:12.995Z,29.80
2019-05-02T17:08:44.555Z,33.30
2019-05-02T17:12:52.917Z,32.70
2019-05-02T17:16:57.464Z,33.20
2019-05-02T17:21:03.200Z,32.60
2019-05-02T17:25:08.989Z,32.40
2019-05-02T17:29:16.471Z,33.30
2019-05-02T17:33:21.917Z,31.00
2019-05-02T17:37:27.987Z,31.90
2019-05-02T17:41:37.071Z,34.10
2019-05-02T17:45:42.645Z,33.50
2019-05-02T17:49:48.530Z,33.40
2019-05-02T17:53:55.202Z,34.70
2019-05-02T17:58:04.651Z,34.50
2019-05-02T18:02:12.341Z,34.90
2019-05-02T18:06:17.374Z,34.90
2019-05-02T18:10:25.085Z,35.30
2019-05-02T18:14:30.570Z,36.00
2019-05-02T18:18:37.442Z,35.90
2019-05-02T18:22:45.422Z,36.00
2019-05-02T18:26:51.768Z,36.40
2019-05-02T18:31:02.842Z,36.60
2019-05-02T18:35:06.441Z,36.90
2019-05-02T18:39:12.989Z,37.30
2019-05-02T18:43:19.197Z,37.40
2019-05-02T18:47:25.171Z,37.80
2019-05-02T18:51:32.186Z,37.80
2019-05-02T18:55:38.141Z,38.00
2019-05-02T18:59:44.042Z,37.70
2019-05-02T19:03:52.498Z,38.20
2019-05-02T19:07:57.742Z,38.50
2019-05-02T19:12:05.765Z,38.50
2019-05-02T19:16:12.803Z,38.70
2019-05-02T19:21:07.518Z,38.60
2019-05-02T19:25:13.237Z,38.60
2019-05-02T19:29:26.318Z,39.00
2019-05-02T19:33:32.094Z,39.10
2019-05-02T19:37:44.632Z,34.90
2019-05-02T19:41:45.797Z,42.00
2019-05-02T19:45:54.021Z,40.20
2019-05-02T19:49:59.770Z,40.20
2019-05-02T19:54:07.134Z,40.30
2019-05-02T19:58:13.414Z,40.50
2019-05-02T20:02:19.221Z,40.80
2019-05-02T20:06:27.221Z,40.90
2019-05-02T20:10:33.046Z,41.20
2019-05-02T20:14:46.070Z,41.40
2019-05-02T20:18:47.244Z,41.70
2019-05-02T20:22:54.315Z,41.80
2019-05-02T20:27:00.004Z,41.90
2019-05-02T20:31:05.852Z,42.00
2019-05-02T20:35:15.093Z,42.10
2019-05-02T20:39:22.462Z,42.20
2019-05-02T20:43:28.466Z,42.30
2019-05-02T20:47:34.228Z,42.50
2019-05-02T20:51:39.914Z,42.50
2019-05-02T20:55:45.652Z,42.60
2019-05-02T20:59:56.544Z,42.70
2019-05-02T21:04:02.898Z,43.00
2019-05-02T21:08:41.852Z,43.00
2019-05-02T21:12:47.699Z,43.30
2019-05-02T21:16:53.530Z,43.40
2019-05-02T21:20:59.279Z,44.20
2019-05-02T21:25:08.521Z,43.80
2019-05-02T21:29:14.765Z,44.00
2019-05-02T21:33:42.817Z,44.10
2019-05-02T21:37:49.584Z,44.40
2019-05-02T21:41:55.274Z,44.60
2019-05-02T21:46:02.371Z,44.80
2019-05-02T21:50:32.239Z,44.80
2019-05-02T21:54:44.717Z,45.10
2019-05-02T21:59:06.924Z,45.30
2019-05-02T22:03:12.811Z,45.40
2019-05-02T22:07:18.521Z,45.70
2019-05-02T22:11:48.359Z,45.80
2019-05-02T22:15:56.877Z,46.00
2019-05-02T22:20:02.532Z,46.20
2019-05-02T22:24:11.629Z,46.20
2019-05-02T22:28:15.608Z,46.40
2019-05-02T22:32:22.609Z,46.50
2019-05-02T22:36:28.293Z,46.60
2019-05-02T22:40:34.165Z,46.70
2019-05-02T22:44:41.700Z,46.80
2019-05-02T22:48:47.493Z,46.90
2019-05-02T22:52:53.665Z,46.90
2019-05-02T22:57:02.436Z,47.10
2019-05-02T23:01:07.685Z,47.10
2019-05-02T23:05:13.337Z,47.30
2019-05-02T23:09:19.011Z,47.50
2019-05-02T23:13:24.745Z,47.60
2019-05-02T23:17:32.040Z,47.70
2019-05-02T23:21:37.769Z,47.90
2019-05-02T23:26:12.863Z,48.00
2019-05-02T23:30:22.575Z,48.10
2019-05-02T23:34:28.327Z,48.20
2019-05-02T23:38:33.978Z,48.30
2019-05-02T23:42:42.192Z,48.50
2019-05-02T23:46:47.824Z,49.40
2019-05-02T23:50:53.550Z,49.10
2019-05-02T23:54:59.308Z,49.30
2019-05-02T23:59:05.006Z,49.70
